Time;durP1;ratioP1;P1;durP2;ratioP2;P2;SDS_P1;SDS_P2;PMS_P1;PMS_P2;Temp;Humidity;BMP_temperature;BMP_pressure;BME280_temperature;BME280_humidity;BME280_pressure;Samples;Min_cycle;Max_cycle;Signal;HPM_P1;HPM_P2
2022/09/28 00:00:07;;;;;;;;;;;13.30;99.90;;;;;;4231290;28;19912;-62
2022/09/28 00:02:08;;;;;;;;;;;13.20;99.90;;;;;;4230883;28;20417;-61
2022/09/28 00:04:10;;;;;;;;;;;13.20;99.90;;;;;;4230923;28;20006;-61
2022/09/28 00:06:12;;;;;;;;;;;13.20;99.90;;;;;;4229350;28;19954;-62
2022/09/28 00:08:13;;;;;;;;;;;13.10;99.90;;;;;;4248161;27;20408;-61
2022/09/28 00:10:14;;;;;;;;;;;13.10;99.90;;;;;;4239685;27;19915;-61
2022/09/28 00:12:15;;;;;;;;;;;13.10;99.90;;;;;;4230586;28;19912;-62
2022/09/28 00:14:16;;;;;;;;;;;13.00;99.90;;;;;;4231464;28;20021;-60
2022/09/28 00:16:19;;;;;;;;;;;13.00;99.90;;;;;;4230403;28;19923;-61
2022/09/28 00:18:20;;;;;;;;;;;12.90;99.90;;;;;;4231342;28;19961;-62
2022/09/28 00:20:21;;;;;;;;;;;12.90;99.90;;;;;;4230262;28;19907;-65
2022/09/28 00:22:22;;;;;;;;;;;12.90;99.90;;;;;;4231301;28;19912;-62
2022/09/28 00:24:23;;;;;;;;;;;12.80;99.90;;;;;;4232186;27;20028;-65
2022/09/28 00:26:25;;;;;;;;;;;12.80;99.90;;;;;;4238411;27;20305;-61
2022/09/28 00:28:26;;;;;;;;;;;12.70;99.90;;;;;;4244163;27;19915;-63
2022/09/28 00:30:27;;;;;;;;;;;12.70;99.90;;;;;;4248061;27;20416;-64
2022/09/28 00:32:28;;;;;;;;;;;12.60;99.90;;;;;;4247358;27;19914;-61
2022/09/28 00:34:31;;;;;;;;;;;12.60;99.90;;;;;;4247542;27;19911;-62
2022/09/28 00:36:32;;;;;;;;;;;12.50;99.90;;;;;;4247596;27;20171;-62
2022/09/28 00:38:33;;;;;;;;;;;12.40;99.90;;;;;;4247609;27;20367;-62
2022/09/28 00:40:34;;;;;;;;;;;12.30;99.90;;;;;;4244137;27;19912;-62
2022/09/28 00:42:35;;;;;;;;;;;12.20;99.90;;;;;;4246851;27;19907;-62
2022/09/28 00:44:36;;;;;;;;;;;12.20;99.90;;;;;;4245817;27;20006;-62
2022/09/28 00:46:37;;;;;;;;;;;12.10;99.90;;;;;;4229893;28;20406;-61
2022/09/28 00:48:40;;;;;;;;;;;12.00;99.90;;;;;;4230748;28;20413;-63
2022/09/28 00:50:41;;;;;;;;;;;12.00;99.90;;;;;;4229636;28;19912;-62
2022/09/28 00:52:42;;;;;;;;;;;12.00;99.90;;;;;;4230866;28;20348;-61
2022/09/28 00:54:44;;;;;;;;;;;12.00;99.90;;;;;;4243029;27;19907;-62
2022/09/28 00:56:45;;;;;;;;;;;12.00;99.90;;;;;;4234696;27;19946;-61
2022/09/28 00:58:48;;;;;;;;;;;12.00;99.90;;;;;;4229777;28;20347;-61
2022/09/28 01:00:49;;;;;;;;;;;12.00;99.90;;;;;;4230070;27;19911;-62
2022/09/28 01:02:50;;;;;;;;;;;12.00;99.90;;;;;;4230044;27;19931;-62
2022/09/28 01:04:51;;;;;;;;;;;12.00;99.90;;;;;;4228906;28;19919;-62
2022/09/28 01:06:52;;;;;;;;;;;12.00;99.90;;;;;;4230009;28;20424;-64
2022/09/28 01:08:57;;;;;;;;;;;12.10;99.90;;;;;;4230343;28;20421;-61
2022/09/28 01:10:58;;;;;;;;;;;12.10;99.90;;;;;;4229297;27;20320;-61
2022/09/28 01:13:00;;;;;;;;;;;12.10;99.90;;;;;;4230072;27;19912;-61
2022/09/28 01:15:02;;;;;;;;;;;12.10;99.90;;;;;;4245836;27;19973;-64
2022/09/28 01:17:24;;;;;;;;;;;12.10;99.90;;;;;;4229154;27;19916;-62
2022/09/28 01:19:43;;;;;;;;;;;12.10;99.90;;;;;;4230158;28;19912;-61
2022/09/28 01:22:05;;;;;;;;;;;12.10;99.90;;;;;;4233526;27;19911;-62
2022/09/28 01:24:09;;;;;;;;;;;12.10;99.90;;;;;;4190558;28;19970;-64
2022/09/28 01:26:30;;;;;;;;;;;12.10;99.90;;;;;;4212810;28;19908;-62
2022/09/28 01:28:31;;;;;;;;;;;12.10;99.90;;;;;;4215630;27;19912;-61
2022/09/28 01:30:40;;;;;;;;;;;12.10;99.90;;;;;;4229522;28;19911;-63
2022/09/28 01:32:54;;;;;;;;;;;12.10;99.90;;;;;;4229452;28;19961;-63
2022/09/28 01:35:01;;;;;;;;;;;12.10;99.90;;;;;;4229286;27;19957;-62
2022/09/28 01:37:04;;;;;;;;;;;12.10;99.90;;;;;;4229430;28;19908;-62
2022/09/28 01:39:08;;;;;;;;;;;12.10;99.90;;;;;;4229395;28;19965;-61
2022/09/28 01:41:09;;;;;;;;;;;12.00;99.90;;;;;;4230483;27;19919;-62
2022/09/28 01:43:16;;;;;;;;;;;12.10;99.90;;;;;;4229152;28;19908;-62
2022/09/28 01:45:29;;;;;;;;;;;12.10;99.90;;;;;;4231078;27;19911;-62
2022/09/28 01:47:33;;;;;;;;;;;12.10;99.90;;;;;;4245913;27;20022;-61
2022/09/28 01:49:42;;;;;;;;;;;12.10;99.90;;;;;;4247003;27;20356;-63
2022/09/28 01:51:46;;;;;;;;;;;12.10;99.90;;;;;;4235278;27;19919;-61
2022/09/28 01:53:50;;;;;;;;;;;12.20;99.90;;;;;;4229839;28;19912;-61
2022/09/28 01:55:54;;;;;;;;;;;12.10;99.90;;;;;;4228796;28;19912;-62
2022/09/28 01:58:03;;;;;;;;;;;12.10;99.90;;;;;;4228587;27;19988;-62
2022/09/28 02:00:06;;;;;;;;;;;12.10;99.90;;;;;;4228745;28;20614;-62
2022/09/28 02:02:15;;;;;;;;;;;12.10;99.90;;;;;;4229978;28;19907;-61
2022/09/28 02:04:18;;;;;;;;;;;12.10;99.90;;;;;;4228634;27;19957;-61
2022/09/28 02:06:35;;;;;;;;;;;12.10;99.90;;;;;;4229943;28;19953;-62
2022/09/28 02:08:39;;;;;;;;;;;12.10;99.90;;;;;;4228928;28;19916;-62
2022/09/28 02:10:46;;;;;;;;;;;12.10;99.90;;;;;;4229615;28;19912;-61
2022/09/28 02:12:52;;;;;;;;;;;12.10;99.90;;;;;;4232625;27;19915;-62
2022/09/28 02:14:54;;;;;;;;;;;12.10;99.90;;;;;;4229582;28;19928;-62
2022/09/28 02:16:56;;;;;;;;;;;12.10;99.90;;;;;;4228604;28;19912;-61
2022/09/28 02:18:57;;;;;;;;;;;12.10;99.90;;;;;;4229371;28;19923;-61
2022/09/28 02:21:02;;;;;;;;;;;12.10;99.90;;;;;;4228284;28;19961;-61
2022/09/28 02:23:04;;;;;;;;;;;12.10;99.90;;;;;;4245043;27;19972;-61
2022/09/28 02:25:09;;;;;;;;;;;12.10;99.90;;;;;;4245153;27;19904;-61
2022/09/28 02:27:10;;;;;;;;;;;12.10;99.90;;;;;;4246079;27;19911;-61
2022/09/28 02:29:11;;;;;;;;;;;12.10;99.90;;;;;;4245424;27;19948;-61
2022/09/28 02:31:12;;;;;;;;;;;12.10;99.90;;;;;;4245860;27;19937;-62
2022/09/28 02:33:24;;;;;;;;;;;12.10;99.90;;;;;;4233677;27;19911;-61
2022/09/28 02:35:25;;;;;;;;;;;12.10;99.90;;;;;;4228487;28;19911;-62
2022/09/28 02:37:27;;;;;;;;;;;12.10;99.90;;;;;;4228748;28;20028;-62
2022/09/28 02:39:27;;;;;;;;;;;12.10;99.90;;;;;;4231271;27;19919;-61
2022/09/28 02:41:38;;;;;;;;;;;12.10;99.90;;;;;;4234282;27;19916;-61
2022/09/28 02:43:49;;;;;;;;;;;12.20;99.90;;;;;;4228022;28;19927;-61
2022/09/28 02:45:50;;;;;;;;;;;12.20;99.90;;;;;;4243762;27;19915;-61
2022/09/28 02:48:09;;;;;;;;;;;12.20;99.90;;;;;;4244931;27;19952;-63
2022/09/28 02:50:29;;;;;;;;;;;12.20;99.90;;;;;;4237625;27;19912;-62
2022/09/28 02:53:05;;;;;;;;;;;12.20;99.90;;;;;;4244639;27;19953;-63
2022/09/28 02:55:15;;;;;;;;;;;12.20;99.90;;;;;;4163986;28;19917;-63
2022/09/28 02:57:28;;;;;;;;;;;12.20;99.90;;;;;;4191396;28;19920;-61
2022/09/28 02:59:47;;;;;;;;;;;12.10;99.90;;;;;;4211257;28;19912;-63
2022/09/28 03:02:02;;;;;;;;;;;12.00;99.90;;;;;;4211942;28;19958;-60
2022/09/28 03:04:09;;;;;;;;;;;12.00;99.90;;;;;;4210863;28;20391;-63
2022/09/28 03:06:16;;;;;;;;;;;11.90;99.90;;;;;;4211759;28;19966;-62
2022/09/28 03:08:22;;;;;;;;;;;11.90;99.90;;;;;;4240186;28;19964;-61
2022/09/28 03:10:23;;;;;;;;;;;11.90;99.90;;;;;;4245500;27;20359;-61
2022/09/28 03:12:24;;;;;;;;;;;11.80;99.90;;;;;;4244332;28;19907;-62
2022/09/28 03:14:25;;;;;;;;;;;11.80;99.90;;;;;;4239032;28;19916;-62
2022/09/28 03:16:27;;;;;;;;;;;11.80;99.90;;;;;;4235653;28;19938;-62
2022/09/28 03:18:28;;;;;;;;;;;11.80;99.90;;;;;;4228630;28;19919;-61
2022/09/28 03:20:30;;;;;;;;;;;11.80;99.90;;;;;;4241201;28;19918;-61
2022/09/28 03:22:30;;;;;;;;;;;11.70;99.90;;;;;;4240535;28;19957;-63
2022/09/28 03:24:31;;;;;;;;;;;11.70;99.90;;;;;;4229986;28;19907;-62
2022/09/28 03:26:32;;;;;;;;;;;11.80;99.90;;;;;;4244688;28;20391;-61
2022/09/28 03:28:35;;;;;;;;;;;11.70;99.90;;;;;;4245723;28;20364;-63
2022/09/28 03:30:35;;;;;;;;;;;11.70;99.90;;;;;;4244226;27;19961;-62
2022/09/28 03:32:37;;;;;;;;;;;11.70;99.90;;;;;;4245683;28;19919;-61
2022/09/28 03:34:37;;;;;;;;;;;11.70;99.90;;;;;;4244500;28;19957;-63
2022/09/28 03:36:38;;;;;;;;;;;11.70;99.90;;;;;;4245515;28;19911;-60
2022/09/28 03:38:39;;;;;;;;;;;11.70;99.90;;;;;;4239430;28;19972;-62
2022/09/28 03:40:40;;;;;;;;;;;11.70;99.90;;;;;;4232644;28;19976;-62
2022/09/28 03:42:42;;;;;;;;;;;11.70;99.90;;;;;;4227887;28;19918;-61
2022/09/28 03:44:43;;;;;;;;;;;11.70;99.90;;;;;;4227808;28;20400;-62
2022/09/28 03:46:45;;;;;;;;;;;11.70;99.90;;;;;;4228032;28;19916;-65
2022/09/28 03:48:46;;;;;;;;;;;11.70;99.90;;;;;;4227547;28;19908;-61
2022/09/28 03:50:47;;;;;;;;;;;11.70;99.90;;;;;;4229209;28;19912;-62
2022/09/28 03:52:48;;;;;;;;;;;11.80;99.90;;;;;;4227215;28;19908;-63
2022/09/28 03:54:49;;;;;;;;;;;11.80;99.90;;;;;;4228486;28;19912;-63
2022/09/28 03:56:50;;;;;;;;;;;11.80;99.90;;;;;;4227142;28;20284;-63
2022/09/28 03:58:51;;;;;;;;;;;11.80;99.90;;;;;;4230025;28;19973;-62
2022/09/28 04:00:52;;;;;;;;;;;11.80;99.90;;;;;;4227089;28;20367;-62
2022/09/28 04:02:53;;;;;;;;;;;11.80;99.90;;;;;;4229661;28;19907;-61
2022/09/28 04:04:54;;;;;;;;;;;11.90;99.90;;;;;;4230309;28;19907;-63
2022/09/28 04:06:55;;;;;;;;;;;11.90;99.90;;;;;;4231346;28;20700;-62
2022/09/28 04:08:56;;;;;;;;;;;11.90;99.90;;;;;;4231466;27;19919;-63
2022/09/28 04:10:57;;;;;;;;;;;12.00;99.90;;;;;;4230756;28;19908;-62
2022/09/28 04:12:58;;;;;;;;;;;11.90;99.90;;;;;;4230255;28;19931;-64
2022/09/28 04:14:59;;;;;;;;;;;12.00;99.90;;;;;;4233603;27;19982;-64
2022/09/28 04:17:00;;;;;;;;;;;12.00;99.90;;;;;;4230080;28;19919;-62
2022/09/28 04:19:02;;;;;;;;;;;12.00;99.90;;;;;;4229285;28;19920;-61
2022/09/28 04:21:07;;;;;;;;;;;12.00;99.90;;;;;;4230250;28;19907;-62
2022/09/28 04:23:09;;;;;;;;;;;12.10;99.90;;;;;;4229162;28;19908;-61
2022/09/28 04:25:10;;;;;;;;;;;12.10;99.90;;;;;;4230528;28;19919;-63
2022/09/28 04:29:30;;;;;;;;;;;12.10;99.90;;;;;;4247770;27;19960;-62
2022/09/28 04:31:51;;;;;;;;;;;12.10;99.90;;;;;;4242913;27;19913;-61
2022/09/28 04:33:52;;;;;;;;;;;12.10;99.90;;;;;;4247244;27;20595;-62
2022/09/28 04:35:53;;;;;;;;;;;12.20;99.90;;;;;;4239322;27;20276;-63
2022/09/28 04:37:54;;;;;;;;;;;12.20;99.90;;;;;;4232488;27;20428;-62
2022/09/28 04:39:55;;;;;;;;;;;12.20;99.90;;;;;;4231073;27;19945;-62
2022/09/28 04:41:56;;;;;;;;;;;12.20;99.90;;;;;;4227951;27;19972;-62
2022/09/28 04:43:57;;;;;;;;;;;12.30;99.90;;;;;;4226110;27;19911;-63
2022/09/28 04:45:59;;;;;;;;;;;12.30;99.90;;;;;;4230218;27;19957;-63
2022/09/28 04:48:00;;;;;;;;;;;12.50;99.90;;;;;;4229145;28;19919;-62
2022/09/28 04:50:01;;;;;;;;;;;12.70;99.90;;;;;;4230316;27;20367;-63
2022/09/28 04:52:02;;;;;;;;;;;12.70;99.90;;;;;;4229299;28;19919;-63
2022/09/28 04:54:03;;;;;;;;;;;12.70;99.90;;;;;;4229185;27;20314;-61
2022/09/28 04:56:05;;;;;;;;;;;12.80;99.90;;;;;;4229330;27;19908;-62
2022/09/28 04:58:06;;;;;;;;;;;12.80;99.90;;;;;;4229930;28;20371;-62
2022/09/28 05:00:08;;;;;;;;;;;12.80;99.90;;;;;;4230114;27;19927;-61
2022/09/28 05:02:09;;;;;;;;;;;12.80;99.90;;;;;;4228944;27;19957;-62
2022/09/28 05:04:10;;;;;;;;;;;12.90;99.90;;;;;;4242631;27;19964;-62
2022/09/28 05:06:14;;;;;;;;;;;12.80;99.90;;;;;;4244865;27;20282;-62
2022/09/28 05:08:15;;;;;;;;;;;12.80;99.90;;;;;;4245657;27;20391;-61
2022/09/28 05:10:17;;;;;;;;;;;12.80;99.90;;;;;;4229708;27;19919;-62
2022/09/28 05:12:19;;;;;;;;;;;12.80;99.90;;;;;;4230377;28;19917;-62
2022/09/28 05:14:23;;;;;;;;;;;12.80;99.90;;;;;;4228305;28;19912;-63
2022/09/28 05:16:25;;;;;;;;;;;12.80;99.90;;;;;;4245323;27;19908;-62
2022/09/28 05:18:26;;;;;;;;;;;12.80;99.90;;;;;;4228031;28;20361;-64
2022/09/28 05:20:27;;;;;;;;;;;12.70;99.90;;;;;;4230110;28;19999;-64
2022/09/28 05:22:29;;;;;;;;;;;12.70;99.90;;;;;;4228978;28;19907;-63
2022/09/28 05:24:30;;;;;;;;;;;12.70;99.90;;;;;;4244563;27;19969;-61
2022/09/28 05:26:31;;;;;;;;;;;12.70;99.90;;;;;;4229322;28;19908;-62
2022/09/28 05:28:32;;;;;;;;;;;12.70;99.90;;;;;;4229395;28;19912;-62
2022/09/28 05:30:34;;;;;;;;;;;12.70;99.90;;;;;;4229586;28;19949;-63
2022/09/28 05:32:41;;;;;;;;;;;12.70;99.90;;;;;;4228678;28;19957;-62
2022/09/28 05:34:42;;;;;;;;;;;12.70;99.90;;;;;;4229221;28;19908;-63
2022/09/28 05:36:44;;;;;;;;;;;12.80;99.90;;;;;;4243305;27;19908;-62
2022/09/28 05:38:45;;;;;;;;;;;12.80;99.90;;;;;;4230108;28;20261;-61
2022/09/28 05:40:46;;;;;;;;;;;12.80;99.90;;;;;;4228728;28;19921;-62
2022/09/28 05:42:47;;;;;;;;;;;12.90;99.90;;;;;;4229830;28;20344;-63
2022/09/28 05:44:48;;;;;;;;;;;12.90;99.90;;;;;;4228633;28;19908;-64
2022/09/28 05:46:49;;;;;;;;;;;12.90;99.90;;;;;;4229786;28;19908;-62
2022/09/28 05:48:51;;;;;;;;;;;13.00;99.90;;;;;;4228375;28;19953;-63
2022/09/28 05:50:52;;;;;;;;;;;13.00;99.90;;;;;;4229710;28;19915;-62
2022/09/28 05:53:00;;;;;;;;;;;13.10;99.90;;;;;;4228589;28;19996;-62
2022/09/28 05:55:02;;;;;;;;;;;13.20;99.90;;;;;;4229656;28;20325;-63
2022/09/28 05:57:03;;;;;;;;;;;13.20;99.90;;;;;;4228087;28;20352;-63
2022/09/28 05:59:05;;;;;;;;;;;13.20;99.90;;;;;;4229180;28;19933;-62
2022/09/28 06:01:05;;;;;;;;;;;13.20;99.90;;;;;;4228536;28;19964;-67
2022/09/28 06:03:09;;;;;;;;;;;13.20;99.90;;;;;;4228621;28;19911;-63
2022/09/28 06:05:10;;;;;;;;;;;13.30;99.90;;;;;;4228563;28;19911;-64
2022/09/28 06:07:11;;;;;;;;;;;13.30;99.90;;;;;;4228473;28;20455;-63
2022/09/28 06:09:12;;;;;;;;;;;13.40;99.90;;;;;;4229299;28;19912;-64
2022/09/28 06:11:13;;;;;;;;;;;13.40;99.90;;;;;;4228052;28;19964;-62
2022/09/28 06:13:14;;;;;;;;;;;13.50;99.90;;;;;;4229198;28;19923;-63
2022/09/28 06:15:16;;;;;;;;;;;13.50;99.90;;;;;;4227920;28;20433;-63
2022/09/28 06:17:17;;;;;;;;;;;13.60;99.90;;;;;;4229217;28;19907;-63
2022/09/28 06:19:18;;;;;;;;;;;13.70;99.90;;;;;;4227765;28;19916;-65
2022/09/28 06:21:19;;;;;;;;;;;13.80;99.90;;;;;;4229177;28;19911;-64
2022/09/28 06:23:19;;;;;;;;;;;13.80;99.90;;;;;;4227990;28;20252;-67
2022/09/28 06:25:21;;;;;;;;;;;13.80;99.90;;;;;;4228773;28;19937;-67
2022/09/28 06:27:22;;;;;;;;;;;14.00;99.90;;;;;;4227400;28;19912;-63
2022/09/28 06:29:23;;;;;;;;;;;14.10;99.90;;;;;;4228566;28;19934;-66
2022/09/28 06:31:24;;;;;;;;;;;14.20;99.90;;;;;;4228196;28;19960;-64
2022/09/28 06:33:25;;;;;;;;;;;14.30;99.90;;;;;;4227862;28;19912;-67
2022/09/28 06:35:29;;;;;;;;;;;14.30;99.90;;;;;;4228337;28;19949;-62
2022/09/28 06:37:31;;;;;;;;;;;14.40;99.90;;;;;;4227979;28;19912;-63
2022/09/28 06:39:32;;;;;;;;;;;14.40;99.90;;;;;;4228906;28;19946;-62
2022/09/28 06:41:33;;;;;;;;;;;14.40;99.90;;;;;;4227805;28;19908;-65
2022/09/28 06:43:38;;;;;;;;;;;14.50;99.90;;;;;;4228756;28;20420;-66
2022/09/28 06:45:39;;;;;;;;;;;14.50;99.90;;;;;;4227674;28;19912;-68
2022/09/28 06:47:40;;;;;;;;;;;14.60;99.90;;;;;;4228650;28;19916;-65
2022/09/28 06:49:41;;;;;;;;;;;14.70;99.90;;;;;;4227553;28;19953;-64
2022/09/28 06:51:44;;;;;;;;;;;14.70;99.90;;;;;;4228826;28;19908;-66
2022/09/28 06:53:45;;;;;;;;;;;14.80;99.90;;;;;;4227777;28;20257;-63
2022/09/28 06:55:49;;;;;;;;;;;14.80;99.90;;;;;;4228740;28;19961;-65
2022/09/28 06:57:57;;;;;;;;;;;14.90;99.90;;;;;;4227375;28;20329;-63
2022/09/28 06:59:58;;;;;;;;;;;15.00;99.90;;;;;;4228708;28;19916;-65
2022/09/28 07:01:59;;;;;;;;;;;15.00;99.90;;;;;;4227218;28;19920;-66
2022/09/28 07:04:00;;;;;;;;;;;15.10;99.90;;;;;;4228229;28;20256;-68
2022/09/28 07:06:03;;;;;;;;;;;15.20;99.90;;;;;;4226185;28;19919;-64
2022/09/28 07:08:04;;;;;;;;;;;15.40;99.90;;;;;;4227584;28;19919;-64
2022/09/28 07:10:05;;;;;;;;;;;15.50;99.90;;;;;;4228174;28;19951;-61
2022/09/28 07:12:09;;;;;;;;;;;15.60;99.90;;;;;;4227424;28;19907;-63
2022/09/28 07:14:10;;;;;;;;;;;15.70;99.90;;;;;;4227987;28;20352;-64
2022/09/28 07:16:11;;;;;;;;;;;15.70;99.90;;;;;;4227328;28;19912;-63
2022/09/28 07:18:12;;;;;;;;;;;15.80;99.90;;;;;;4228171;28;19965;-62
2022/09/28 07:20:14;;;;;;;;;;;15.90;99.90;;;;;;4227253;28;19916;-65
2022/09/28 07:22:14;;;;;;;;;;;16.10;99.90;;;;;;4243459;28;19911;-62
2022/09/28 07:24:15;;;;;;;;;;;16.30;99.90;;;;;;4227282;28;19961;-64
2022/09/28 07:26:18;;;;;;;;;;;16.40;99.90;;;;;;4228271;28;19914;-63
2022/09/28 07:28:19;;;;;;;;;;;16.30;99.90;;;;;;4227101;28;19942;-64
2022/09/28 07:30:20;;;;;;;;;;;16.40;99.90;;;;;;4228055;28;19961;-64
2022/09/28 07:32:21;;;;;;;;;;;16.50;99.90;;;;;;4226908;28;19961;-62
2022/09/28 07:34:22;;;;;;;;;;;16.40;99.90;;;;;;4228290;28;20352;-62
2022/09/28 07:36:23;;;;;;;;;;;16.40;99.90;;;;;;4227110;28;19916;-63
2022/09/28 07:38:24;;;;;;;;;;;16.30;99.90;;;;;;4230297;28;19908;-63
2022/09/28 07:42:45;;;;;;;;;;;16.10;99.90;;;;;;4231216;28;19972;-64
2022/09/28 07:44:46;;;;;;;;;;;15.90;99.90;;;;;;4230715;28;19908;-63
2022/09/28 07:46:47;;;;;;;;;;;15.80;99.90;;;;;;4230813;28;20000;-65
2022/09/28 07:48:50;;;;;;;;;;;15.90;99.90;;;;;;4230961;28;19912;-63
2022/09/28 07:50:52;;;;;;;;;;;16.10;99.90;;;;;;4230652;28;19907;-64
2022/09/28 07:52:56;;;;;;;;;;;16.40;99.90;;;;;;4231197;28;19915;-63
2022/09/28 07:54:57;;;;;;;;;;;16.60;99.90;;;;;;4230442;28;20019;-63
2022/09/28 07:56:58;;;;;;;;;;;17.00;99.90;;;;;;4231422;28;19912;-64
2022/09/28 07:58:59;;;;;;;;;;;17.30;99.90;;;;;;4230016;28;19919;-64
2022/09/28 08:01:04;;;;;;;;;;;17.80;99.90;;;;;;4231041;28;20310;-64
2022/09/28 08:03:05;;;;;;;;;;;18.30;99.90;;;;;;4229683;28;19911;-64
2022/09/28 08:05:08;;;;;;;;;;;18.50;99.90;;;;;;4246609;27;19918;-63
2022/09/28 08:07:10;;;;;;;;;;;18.30;99.90;;;;;;4230150;28;20325;-62
2022/09/28 08:09:10;;;;;;;;;;;18.30;99.90;;;;;;4229903;28;19908;-64
2022/09/28 08:11:12;;;;;;;;;;;18.40;99.90;;;;;;4229897;28;20317;-66
2022/09/28 08:13:13;;;;;;;;;;;18.40;99.90;;;;;;4245764;27;19911;-64
2022/09/28 08:15:14;;;;;;;;;;;18.60;99.90;;;;;;4230189;28;19907;-64
2022/09/28 08:17:15;;;;;;;;;;;18.80;99.90;;;;;;4230915;28;20002;-64
2022/09/28 08:19:16;;;;;;;;;;;18.80;99.90;;;;;;4230017;28;20392;-63
2022/09/28 08:23:37;;;;;;;;;;;18.50;99.90;;;;;;4230583;28;19960;-63
2022/09/28 08:25:38;;;;;;;;;;;18.40;99.90;;;;;;4229807;28;20359;-63
2022/09/28 08:27:39;;;;;;;;;;;18.30;99.90;;;;;;4230517;28;19908;-64
2022/09/28 08:29:41;;;;;;;;;;;18.20;99.90;;;;;;4229657;28;19915;-63
2022/09/28 08:31:42;;;;;;;;;;;18.00;99.90;;;;;;4230604;28;19968;-65
2022/09/28 08:33:43;;;;;;;;;;;17.80;99.90;;;;;;4229305;28;20352;-64
2022/09/28 08:35:45;;;;;;;;;;;17.70;99.90;;;;;;4230146;28;19908;-67
2022/09/28 08:37:51;;;;;;;;;;;17.70;99.90;;;;;;4229168;28;19912;-68
2022/09/28 08:39:52;;;;;;;;;;;17.80;99.90;;;;;;4230905;28;19924;-65
2022/09/28 08:42:03;;;;;;;;;;;18.00;99.90;;;;;;4229324;28;19907;-63
2022/09/28 08:44:04;;;;;;;;;;;18.10;99.90;;;;;;4230650;28;19907;-67
2022/09/28 08:46:05;;;;;;;;;;;18.30;99.90;;;;;;4229280;28;20249;-64
2022/09/28 08:50:46;;;;;;;;;;;18.20;99.90;;;;;;4228824;28;19942;-67
2022/09/28 08:52:50;;;;;;;;;;;18.30;99.90;;;;;;4230225;28;20265;-67
2022/09/28 08:54:55;;;;;;;;;;;18.20;99.90;;;;;;4228984;28;19961;-64
2022/09/28 08:57:04;;;;;;;;;;;18.10;99.90;;;;;;4230260;28;19912;-68
2022/09/28 08:59:10;;;;;;;;;;;18.10;99.90;;;;;;4229064;28;19924;-66
2022/09/28 09:01:15;;;;;;;;;;;18.00;99.90;;;;;;4230198;28;19911;-63
2022/09/28 09:03:18;;;;;;;;;;;17.80;99.90;;;;;;4229028;28;19912;-63
2022/09/28 09:05:19;;;;;;;;;;;17.80;99.90;;;;;;4230342;28;19915;-67
2022/09/28 09:07:43;;;;;;;;;;;17.90;99.90;;;;;;4229151;28;19911;-66
2022/09/28 09:09:44;;;;;;;;;;;18.00;99.90;;;;;;4219335;28;19911;-64
2022/09/28 09:11:48;;;;;;;;;;;18.20;99.90;;;;;;4229170;28;20465;-66
2022/09/28 09:14:01;;;;;;;;;;;18.20;99.90;;;;;;4230201;28;19916;-65
2022/09/28 09:16:13;;;;;;;;;;;18.10;99.90;;;;;;4228652;28;19912;-65
2022/09/28 09:18:14;;;;;;;;;;;18.10;99.90;;;;;;4230008;28;19911;-64
2022/09/28 09:20:24;;;;;;;;;;;18.30;99.90;;;;;;4228959;28;19922;-64
2022/09/28 09:22:25;;;;;;;;;;;18.40;99.90;;;;;;4229980;28;19960;-61
2022/09/28 09:24:29;;;;;;;;;;;18.30;99.90;;;;;;4228844;28;20447;-64
2022/09/28 09:26:38;;;;;;;;;;;18.10;99.90;;;;;;4229601;28;19958;-64
2022/09/28 09:28:39;;;;;;;;;;;18.00;99.90;;;;;;4228860;28;19989;-64
2022/09/28 09:30:54;;;;;;;;;;;17.90;99.90;;;;;;4229237;28;19918;-64
2022/09/28 09:33:09;;;;;;;;;;;17.90;99.90;;;;;;4228239;27;19953;-63
2022/09/28 09:35:18;;;;;;;;;;;17.90;99.90;;;;;;4229276;28;19992;-66
2022/09/28 09:37:33;;;;;;;;;;;17.70;99.90;;;;;;4228738;28;19969;-64
2022/09/28 09:39:51;;;;;;;;;;;17.60;99.90;;;;;;4228991;28;19969;-63
2022/09/28 09:41:51;;;;;;;;;;;17.60;99.90;;;;;;4228262;28;20363;-63
2022/09/28 09:44:13;;;;;;;;;;;17.70;99.90;;;;;;4229191;28;19926;-63
2022/09/28 09:46:17;;;;;;;;;;;17.80;99.90;;;;;;4228213;28;20452;-63
2022/09/28 09:48:38;;;;;;;;;;;17.80;99.90;;;;;;4228948;28;19916;-62
2022/09/28 09:50:43;;;;;;;;;;;17.80;99.90;;;;;;4213845;28;19937;-62
2022/09/28 09:52:54;;;;;;;;;;;17.80;99.90;;;;;;4229037;28;19916;-62
2022/09/28 09:54:59;;;;;;;;;;;17.90;99.90;;;;;;4228002;28;20416;-63
2022/09/28 09:57:12;;;;;;;;;;;17.90;99.90;;;;;;4229035;28;20364;-63
2022/09/28 09:59:17;;;;;;;;;;;17.80;99.90;;;;;;4228235;28;19977;-64
2022/09/28 10:01:20;;;;;;;;;;;17.60;99.90;;;;;;4229130;28;20262;-63
2022/09/28 10:03:25;;;;;;;;;;;17.60;99.90;;;;;;4228251;28;19953;-62
2022/09/28 10:05:28;;;;;;;;;;;17.50;99.90;;;;;;4228745;28;20008;-62
2022/09/28 10:07:35;;;;;;;;;;;17.50;99.90;;;;;;4228287;28;19911;-61
2022/09/28 10:09:38;;;;;;;;;;;17.70;99.90;;;;;;4229059;28;19969;-63
2022/09/28 10:11:43;;;;;;;;;;;17.80;99.90;;;;;;4227968;28;19973;-62
2022/09/28 10:13:48;;;;;;;;;;;17.80;99.90;;;;;;4227945;28;19916;-62
2022/09/28 10:15:50;;;;;;;;;;;17.80;99.90;;;;;;4228433;28;19911;-63
2022/09/28 10:17:52;;;;;;;;;;;17.90;99.90;;;;;;4227905;28;19915;-63
2022/09/28 10:19:55;;;;;;;;;;;18.10;99.90;;;;;;4228741;28;20018;-63
2022/09/28 10:21:58;;;;;;;;;;;18.20;99.90;;;;;;4227787;28;19912;-62
2022/09/28 10:24:02;;;;;;;;;;;18.30;99.90;;;;;;4244038;27;19911;-62
2022/09/28 10:26:06;;;;;;;;;;;18.20;99.90;;;;;;4227221;28;19956;-65
2022/09/28 10:28:10;;;;;;;;;;;17.90;99.90;;;;;;4228687;28;19957;-63
2022/09/28 10:30:15;;;;;;;;;;;17.80;99.90;;;;;;4227683;28;19976;-64
2022/09/28 10:32:22;;;;;;;;;;;17.90;99.90;;;;;;4228710;28;19964;-63
2022/09/28 10:34:25;;;;;;;;;;;17.90;99.90;;;;;;4227349;28;19912;-62
2022/09/28 10:36:26;;;;;;;;;;;17.90;99.90;;;;;;4228576;28;19912;-63
2022/09/28 10:38:28;;;;;;;;;;;18.00;99.90;;;;;;4227531;28;20383;-63
2022/09/28 10:40:38;;;;;;;;;;;18.10;99.90;;;;;;4228765;28;19916;-63
2022/09/28 10:42:39;;;;;;;;;;;18.10;99.90;;;;;;4227277;28;19911;-64
2022/09/28 10:44:46;;;;;;;;;;;18.20;99.90;;;;;;4228517;28;19908;-63
2022/09/28 10:46:58;;;;;;;;;;;18.30;99.90;;;;;;4227561;28;19907;-63
2022/09/28 10:48:59;;;;;;;;;;;18.30;99.90;;;;;;4228331;28;19969;-63
2022/09/28 10:51:09;;;;;;;;;;;18.30;99.90;;;;;;4227405;28;19903;-62
2022/09/28 10:53:18;;;;;;;;;;;18.20;99.90;;;;;;4228278;28;19908;-62
2022/09/28 10:55:19;;;;;;;;;;;18.10;99.90;;;;;;4226899;28;19957;-63
2022/09/28 10:57:26;;;;;;;;;;;18.10;99.90;;;;;;4227867;28;20371;-63
2022/09/28 10:59:27;;;;;;;;;;;18.00;99.90;;;;;;4242630;27;19916;-63
2022/09/28 11:01:32;;;;;;;;;;;18.00;99.90;;;;;;4227727;28;20007;-63
2022/09/28 11:03:33;;;;;;;;;;;18.10;99.90;;;;;;4227510;28;19927;-64
2022/09/28 11:05:34;;;;;;;;;;;18.10;99.90;;;;;;4227451;28;20026;-63
2022/09/28 11:07:44;;;;;;;;;;;18.00;99.90;;;;;;4228093;28;19972;-63
2022/09/28 11:09:48;;;;;;;;;;;18.00;99.90;;;;;;4227750;28;20286;-63
2022/09/28 11:11:49;;;;;;;;;;;18.10;99.90;;;;;;4227590;28;19957;-63
2022/09/28 11:13:52;;;;;;;;;;;18.20;99.90;;;;;;4227160;28;19912;-63
2022/09/28 11:15:53;;;;;;;;;;;18.30;99.90;;;;;;4228364;28;19912;-63
2022/09/28 11:17:54;;;;;;;;;;;18.40;99.90;;;;;;4227025;28;20324;-63
2022/09/28 11:19:56;;;;;;;;;;;18.40;99.90;;;;;;4227799;28;19924;-62
2022/09/28 11:21:57;;;;;;;;;;;18.30;99.90;;;;;;4227074;28;19907;-63
2022/09/28 11:24:17;;;;;;;;;;;18.20;99.90;;;;;;4228217;28;19931;-63
2022/09/28 11:26:19;;;;;;;;;;;18.20;99.90;;;;;;4227126;28;19911;-63
2022/09/28 11:28:22;;;;;;;;;;;18.10;99.90;;;;;;4228494;28;19969;-63
2022/09/28 11:30:23;;;;;;;;;;;18.10;99.90;;;;;;4226921;28;19915;-63
2022/09/28 11:32:27;;;;;;;;;;;18.30;99.90;;;;;;4228338;28;19908;-63
2022/09/28 11:34:32;;;;;;;;;;;18.30;99.90;;;;;;4227064;28;20011;-62
2022/09/28 11:36:45;;;;;;;;;;;18.20;99.70;;;;;;4228143;28;19956;-62
2022/09/28 11:39:00;;;;;;;;;;;18.00;99.90;;;;;;4226976;28;19949;-62
2022/09/28 11:41:01;;;;;;;;;;;17.90;99.60;;;;;;4228449;28;20397;-63
2022/09/28 11:43:20;;;;;;;;;;;18.00;99.90;;;;;;4226903;28;19966;-64
2022/09/28 11:45:21;;;;;;;;;;;17.90;99.90;;;;;;4228223;28;19920;-63
2022/09/28 11:47:22;;;;;;;;;;;17.90;99.70;;;;;;4226892;28;19912;-63
2022/09/28 11:49:26;;;;;;;;;;;17.90;99.80;;;;;;4227629;28;19930;-62
2022/09/28 11:51:30;;;;;;;;;;;17.90;99.90;;;;;;4227397;28;19912;-63
2022/09/28 11:53:34;;;;;;;;;;;18.00;99.90;;;;;;4227801;28;19908;-63
2022/09/28 11:55:37;;;;;;;;;;;18.10;99.90;;;;;;4227452;28;19953;-63
2022/09/28 11:57:49;;;;;;;;;;;18.30;99.50;;;;;;4227211;28;20345;-63
2022/09/28 11:59:54;;;;;;;;;;;18.50;99.10;;;;;;4226855;28;19916;-62
2022/09/28 12:01:56;;;;;;;;;;;18.40;98.50;;;;;;4227132;28;19961;-64
2022/09/28 12:04:02;;;;;;;;;;;18.30;98.60;;;;;;4227038;28;19912;-63
2022/09/28 12:06:06;;;;;;;;;;;18.30;98.70;;;;;;4226948;28;19911;-64
2022/09/28 12:08:12;;;;;;;;;;;18.40;99.90;;;;;;4227652;28;20405;-63